sensor_id;sensor_type;location;lat;lon;timestamp;temperature;humidity
66670;DHT22;53568;52.164;4.472;2023-06-10T00:01:41;23.66;51.07
66670;DHT22;53568;52.164;4.472;2023-06-10T00:04:08;23.64;51.11
66670;DHT22;53568;52.164;4.472;2023-06-10T00:06:34;23.64;51.16
66670;DHT22;53568;52.164;4.472;2023-06-10T00:09:06;23.57;51.28
66670;DHT22;53568;52.164;4.472;2023-06-10T00:11:35;23.56;51.08
66670;DHT22;53568;52.164;4.472;2023-06-10T00:14:01;23.54;51.12
66670;DHT22;53568;52.164;4.472;2023-06-10T00:16:27;23.46;51.22
66670;DHT22;53568;52.164;4.472;2023-06-10T00:18:53;23.39;51.12
66670;DHT22;53568;52.164;4.472;2023-06-10T00:21:21;23.31;51.39
66670;DHT22;53568;52.164;4.472;2023-06-10T00:23:47;23.28;51.23
66670;DHT22;53568;52.164;4.472;2023-06-10T00:26:13;23.22;51.37
66670;DHT22;53568;52.164;4.472;2023-06-10T00:28:39;23.22;51.40
66670;DHT22;53568;52.164;4.472;2023-06-10T00:31:05;23.12;51.62
66670;DHT22;53568;52.164;4.472;2023-06-10T00:33:30;23.16;51.30
66670;DHT22;53568;52.164;4.472;2023-06-10T00:35:56;23.04;51.58
66670;DHT22;53568;52.164;4.472;2023-06-10T00:38:21;23.06;51.42
66670;DHT22;53568;52.164;4.472;2023-06-10T00:40:47;22.99;51.46
66670;DHT22;53568;52.164;4.472;2023-06-10T00:43:12;22.98;51.51
66670;DHT22;53568;52.164;4.472;2023-06-10T00:45:38;22.88;51.45
66670;DHT22;53568;52.164;4.472;2023-06-10T00:48:04;22.85;51.53
66670;DHT22;53568;52.164;4.472;2023-06-10T00:50:31;22.82;51.62
66670;DHT22;53568;52.164;4.472;2023-06-10T00:52:57;22.80;51.44
66670;DHT22;53568;52.164;4.472;2023-06-10T00:55:23;22.75;51.43
66670;DHT22;53568;52.164;4.472;2023-06-10T00:57:50;22.66;51.68
66670;DHT22;53568;52.164;4.472;2023-06-10T01:00:17;22.53;52.08
66670;DHT22;53568;52.164;4.472;2023-06-10T01:02:43;22.53;52.05
66670;DHT22;53568;52.164;4.472;2023-06-10T01:05:09;22.53;51.96
66670;DHT22;53568;52.164;4.472;2023-06-10T01:10:19;22.46;52.02
66670;DHT22;53568;52.164;4.472;2023-06-10T01:15:17;22.39;52.11
66670;DHT22;53568;52.164;4.472;2023-06-10T01:20:20;22.48;51.91
66670;DHT22;53568;52.164;4.472;2023-06-10T01:22:46;22.51;51.71
66670;DHT22;53568;52.164;4.472;2023-06-10T01:25:13;22.49;51.69
66670;DHT22;53568;52.164;4.472;2023-06-10T01:27:40;22.39;52.06
66670;DHT22;53568;52.164;4.472;2023-06-10T01:30:19;22.26;52.11
66670;DHT22;53568;52.164;4.472;2023-06-10T01:32:51;22.16;52.17
66670;DHT22;53568;52.164;4.472;2023-06-10T01:35:17;22.12;52.36
66670;DHT22;53568;52.164;4.472;2023-06-10T01:37:45;22.06;52.55
66670;DHT22;53568;52.164;4.472;2023-06-10T01:40:12;22.01;52.46
66670;DHT22;53568;52.164;4.472;2023-06-10T01:42:38;21.98;52.27
66670;DHT22;53568;52.164;4.472;2023-06-10T01:45:04;21.98;52.33
66670;DHT22;53568;52.164;4.472;2023-06-10T01:47:30;21.94;52.46
66670;DHT22;53568;52.164;4.472;2023-06-10T01:49:55;22.02;52.22
66670;DHT22;53568;52.164;4.472;2023-06-10T01:52:21;22.05;51.85
66670;DHT22;53568;52.164;4.472;2023-06-10T01:54:47;22.02;52.00
66670;DHT22;53568;52.164;4.472;2023-06-10T01:57:12;22.02;51.83
66670;DHT22;53568;52.164;4.472;2023-06-10T01:59:37;22.00;51.98
66670;DHT22;53568;52.164;4.472;2023-06-10T02:02:04;21.91;52.15
66670;DHT22;53568;52.164;4.472;2023-06-10T02:04:30;21.88;52.29
66670;DHT22;53568;52.164;4.472;2023-06-10T02:06:56;21.90;52.08
66670;DHT22;53568;52.164;4.472;2023-06-10T02:09:22;21.82;52.52
66670;DHT22;53568;52.164;4.472;2023-06-10T02:11:48;21.80;52.23
66670;DHT22;53568;52.164;4.472;2023-06-10T02:14:14;21.73;52.55
66670;DHT22;53568;52.164;4.472;2023-06-10T02:16:40;21.58;52.87
66670;DHT22;53568;52.164;4.472;2023-06-10T02:19:06;21.54;53.04
66670;DHT22;53568;52.164;4.472;2023-06-10T02:21:32;21.55;52.71
66670;DHT22;53568;52.164;4.472;2023-06-10T02:24:00;21.55;52.60
66670;DHT22;53568;52.164;4.472;2023-06-10T02:26:26;21.47;52.96
66670;DHT22;53568;52.164;4.472;2023-06-10T02:28:51;21.44;52.67
66670;DHT22;53568;52.164;4.472;2023-06-10T02:31:17;21.41;52.68
66670;DHT22;53568;52.164;4.472;2023-06-10T02:33:44;21.37;52.65
66670;DHT22;53568;52.164;4.472;2023-06-10T02:36:10;21.28;52.95
66670;DHT22;53568;52.164;4.472;2023-06-10T02:38:39;21.27;52.94
66670;DHT22;53568;52.164;4.472;2023-06-10T02:41:06;21.31;52.89
66670;DHT22;53568;52.164;4.472;2023-06-10T02:43:32;21.28;52.62
66670;DHT22;53568;52.164;4.472;2023-06-10T02:45:57;21.22;52.90
66670;DHT22;53568;52.164;4.472;2023-06-10T02:48:27;21.23;52.78
66670;DHT22;53568;52.164;4.472;2023-06-10T02:50:53;21.17;53.01
66670;DHT22;53568;52.164;4.472;2023-06-10T02:53:18;21.16;53.00
66670;DHT22;53568;52.164;4.472;2023-06-10T02:55:44;21.11;53.05
66670;DHT22;53568;52.164;4.472;2023-06-10T02:58:10;21.07;53.16
66670;DHT22;53568;52.164;4.472;2023-06-10T03:00:35;21.06;53.16
66670;DHT22;53568;52.164;4.472;2023-06-10T03:03:03;20.97;53.39
66670;DHT22;53568;52.164;4.472;2023-06-10T03:05:29;20.97;53.47
66670;DHT22;53568;52.164;4.472;2023-06-10T03:07:55;20.96;53.52
66670;DHT22;53568;52.164;4.472;2023-06-10T03:10:20;20.96;53.63
66670;DHT22;53568;52.164;4.472;2023-06-10T03:12:46;21.06;53.35
66670;DHT22;53568;52.164;4.472;2023-06-10T03:15:11;20.97;53.54
66670;DHT22;53568;52.164;4.472;2023-06-10T03:17:37;21.00;53.63
66670;DHT22;53568;52.164;4.472;2023-06-10T03:20:03;21.06;53.38
66670;DHT22;53568;52.164;4.472;2023-06-10T03:22:33;20.99;53.65
66670;DHT22;53568;52.164;4.472;2023-06-10T03:24:58;20.90;53.96
66670;DHT22;53568;52.164;4.472;2023-06-10T03:27:25;20.95;53.95
66670;DHT22;53568;52.164;4.472;2023-06-10T03:29:51;20.93;53.94
66670;DHT22;53568;52.164;4.472;2023-06-10T03:32:16;20.86;54.23
66670;DHT22;53568;52.164;4.472;2023-06-10T03:34:43;20.86;54.39
66670;DHT22;53568;52.164;4.472;2023-06-10T03:37:10;20.85;54.43
66670;DHT22;53568;52.164;4.472;2023-06-10T03:39:35;20.82;54.85
66670;DHT22;53568;52.164;4.472;2023-06-10T03:42:01;20.73;55.07
66670;DHT22;53568;52.164;4.472;2023-06-10T03:44:27;20.72;55.30
66670;DHT22;53568;52.164;4.472;2023-06-10T03:46:54;20.76;55.49
66670;DHT22;53568;52.164;4.472;2023-06-10T03:49:20;20.77;55.39
66670;DHT22;53568;52.164;4.472;2023-06-10T03:51:46;20.77;55.54
66670;DHT22;53568;52.164;4.472;2023-06-10T03:54:11;20.85;55.41
66670;DHT22;53568;52.164;4.472;2023-06-10T03:56:37;20.87;55.45
66670;DHT22;53568;52.164;4.472;2023-06-10T03:59:02;20.90;55.31
66670;DHT22;53568;52.164;4.472;2023-06-10T04:01:28;20.89;55.72
66670;DHT22;53568;52.164;4.472;2023-06-10T04:03:53;20.96;55.62
66670;DHT22;53568;52.164;4.472;2023-06-10T04:06:22;21.04;55.39
66670;DHT22;53568;52.164;4.472;2023-06-10T04:08:52;21.03;55.57
66670;DHT22;53568;52.164;4.472;2023-06-10T04:11:18;21.07;55.59
66670;DHT22;53568;52.164;4.472;2023-06-10T04:13:44;21.11;55.59
66670;DHT22;53568;52.164;4.472;2023-06-10T04:16:12;21.07;55.69
66670;DHT22;53568;52.164;4.472;2023-06-10T04:18:38;21.00;56.15
66670;DHT22;53568;52.164;4.472;2023-06-10T04:21:03;21.03;56.14
66670;DHT22;53568;52.164;4.472;2023-06-10T04:23:29;21.06;56.18
66670;DHT22;53568;52.164;4.472;2023-06-10T04:25:54;21.00;56.37
66670;DHT22;53568;52.164;4.472;2023-06-10T04:28:20;21.00;56.60
66670;DHT22;53568;52.164;4.472;2023-06-10T04:30:45;21.03;56.60
66670;DHT22;53568;52.164;4.472;2023-06-10T04:33:11;21.06;56.50
66670;DHT22;53568;52.164;4.472;2023-06-10T04:35:36;21.10;56.42
66670;DHT22;53568;52.164;4.472;2023-06-10T04:38:02;21.07;56.63
66670;DHT22;53568;52.164;4.472;2023-06-10T04:40:28;21.10;56.56
66670;DHT22;53568;52.164;4.472;2023-06-10T04:42:54;21.08;56.80
66670;DHT22;53568;52.164;4.472;2023-06-10T04:45:19;21.13;56.53
66670;DHT22;53568;52.164;4.472;2023-06-10T04:47:45;21.19;56.65
66670;DHT22;53568;52.164;4.472;2023-06-10T04:50:10;21.27;56.52
66670;DHT22;53568;52.164;4.472;2023-06-10T04:52:36;21.22;56.78
66670;DHT22;53568;52.164;4.472;2023-06-10T04:55:02;21.20;56.69
66670;DHT22;53568;52.164;4.472;2023-06-10T04:57:28;21.17;57.00
66670;DHT22;53568;52.164;4.472;2023-06-10T04:59:53;21.27;56.86
66670;DHT22;53568;52.164;4.472;2023-06-10T05:02:18;21.51;55.95
66670;DHT22;53568;52.164;4.472;2023-06-10T05:04:44;21.41;56.42
66670;DHT22;53568;52.164;4.472;2023-06-10T05:07:10;21.44;56.48
66670;DHT22;53568;52.164;4.472;2023-06-10T05:09:35;21.43;56.73
66670;DHT22;53568;52.164;4.472;2023-06-10T05:12:01;21.57;56.20
66670;DHT22;53568;52.164;4.472;2023-06-10T05:14:27;21.62;55.96
66670;DHT22;53568;52.164;4.472;2023-06-10T05:16:53;21.67;55.94
66670;DHT22;53568;52.164;4.472;2023-06-10T05:19:19;21.67;56.01
66670;DHT22;53568;52.164;4.472;2023-06-10T05:21:45;21.71;56.13
66670;DHT22;53568;52.164;4.472;2023-06-10T05:24:11;21.61;56.34
66670;DHT22;53568;52.164;4.472;2023-06-10T05:26:37;21.73;56.02
66670;DHT22;53568;52.164;4.472;2023-06-10T05:29:04;21.85;55.73
66670;DHT22;53568;52.164;4.472;2023-06-10T05:31:30;21.91;55.45
66670;DHT22;53568;52.164;4.472;2023-06-10T05:33:58;21.85;55.88
66670;DHT22;53568;52.164;4.472;2023-06-10T05:36:23;21.95;55.84
66670;DHT22;53568;52.164;4.472;2023-06-10T05:38:51;21.98;55.54
66670;DHT22;53568;52.164;4.472;2023-06-10T05:41:16;21.92;56.05
66670;DHT22;53568;52.164;4.472;2023-06-10T05:43:42;22.01;55.39
66670;DHT22;53568;52.164;4.472;2023-06-10T05:46:08;21.98;55.79
66670;DHT22;53568;52.164;4.472;2023-06-10T05:48:33;22.00;55.69
66670;DHT22;53568;52.164;4.472;2023-06-10T05:50:59;22.00;55.83
66670;DHT22;53568;52.164;4.472;2023-06-10T05:53:25;22.02;56.01
66670;DHT22;53568;52.164;4.472;2023-06-10T05:55:50;22.11;55.68
66670;DHT22;53568;52.164;4.472;2023-06-10T05:58:17;22.18;55.55
66670;DHT22;53568;52.164;4.472;2023-06-10T06:00:43;22.19;55.67
66670;DHT22;53568;52.164;4.472;2023-06-10T06:03:09;22.15;55.93
66670;DHT22;53568;52.164;4.472;2023-06-10T06:05:36;22.21;55.81
66670;DHT22;53568;52.164;4.472;2023-06-10T06:08:06;22.25;55.28
66670;DHT22;53568;52.164;4.472;2023-06-10T06:10:32;22.25;55.75
66670;DHT22;53568;52.164;4.472;2023-06-10T06:12:58;22.31;55.67
66670;DHT22;53568;52.164;4.472;2023-06-10T06:15:23;22.41;55.74
66670;DHT22;53568;52.164;4.472;2023-06-10T06:17:49;22.48;55.16
66670;DHT22;53568;52.164;4.472;2023-06-10T06:20:18;22.58;55.56
66670;DHT22;53568;52.164;4.472;2023-06-10T06:22:44;22.65;55.33
66670;DHT22;53568;52.164;4.472;2023-06-10T06:25:09;22.68;54.76
66670;DHT22;53568;52.164;4.472;2023-06-10T06:27:35;22.62;55.32
66670;DHT22;53568;52.164;4.472;2023-06-10T06:30:00;22.65;54.92
66670;DHT22;53568;52.164;4.472;2023-06-10T06:32:26;22.62;55.18
66670;DHT22;53568;52.164;4.472;2023-06-10T06:34:55;22.56;55.63
66670;DHT22;53568;52.164;4.472;2023-06-10T06:37:23;22.58;55.85
66670;DHT22;53568;52.164;4.472;2023-06-10T06:39:52;22.72;55.67
66670;DHT22;53568;52.164;4.472;2023-06-10T06:42:18;22.85;54.89
66670;DHT22;53568;52.164;4.472;2023-06-10T06:44:47;22.77;55.11
66670;DHT22;53568;52.164;4.472;2023-06-10T06:47:13;22.86;55.21
66670;DHT22;53568;52.164;4.472;2023-06-10T06:49:38;22.93;54.85
66670;DHT22;53568;52.164;4.472;2023-06-10T06:52:04;22.96;54.78
66670;DHT22;53568;52.164;4.472;2023-06-10T06:54:30;22.95;54.70
66670;DHT22;53568;52.164;4.472;2023-06-10T06:56:56;22.82;55.29
66670;DHT22;53568;52.164;4.472;2023-06-10T06:59:28;22.96;55.51
66670;DHT22;53568;52.164;4.472;2023-06-10T07:01:54;23.12;54.32
66670;DHT22;53568;52.164;4.472;2023-06-10T07:04:20;23.20;54.44
66670;DHT22;53568;52.164;4.472;2023-06-10T07:06:48;23.31;54.02
66670;DHT22;53568;52.164;4.472;2023-06-10T07:09:13;23.37;53.81
66670;DHT22;53568;52.164;4.472;2023-06-10T07:11:39;23.46;53.88
66670;DHT22;53568;52.164;4.472;2023-06-10T07:14:06;23.57;53.90
66670;DHT22;53568;52.164;4.472;2023-06-10T07:16:32;23.60;52.88
66670;DHT22;53568;52.164;4.472;2023-06-10T07:18:58;23.67;52.83
66670;DHT22;53568;52.164;4.472;2023-06-10T07:21:23;23.66;53.15
66670;DHT22;53568;52.164;4.472;2023-06-10T07:23:49;23.77;52.90
66670;DHT22;53568;52.164;4.472;2023-06-10T07:26:19;23.82;52.78
66670;DHT22;53568;52.164;4.472;2023-06-10T07:28:44;23.70;53.34
66670;DHT22;53568;52.164;4.472;2023-06-10T07:31:10;23.78;53.85
66670;DHT22;53568;52.164;4.472;2023-06-10T07:33:37;23.97;52.77
66670;DHT22;53568;52.164;4.472;2023-06-10T07:36:05;23.88;52.67
66670;DHT22;53568;52.164;4.472;2023-06-10T07:38:31;23.91;52.83
66670;DHT22;53568;52.164;4.472;2023-06-10T07:40:56;23.94;52.83
66670;DHT22;53568;52.164;4.472;2023-06-10T07:43:24;23.97;52.24
66670;DHT22;53568;52.164;4.472;2023-06-10T07:45:50;23.98;52.80
66670;DHT22;53568;52.164;4.472;2023-06-10T07:48:16;24.12;52.25
66670;DHT22;53568;52.164;4.472;2023-06-10T07:50:41;24.18;52.03
66670;DHT22;53568;52.164;4.472;2023-06-10T07:53:07;24.20;52.57
66670;DHT22;53568;52.164;4.472;2023-06-10T07:55:32;24.18;52.51
66670;DHT22;53568;52.164;4.472;2023-06-10T07:57:58;24.25;52.44
66670;DHT22;53568;52.164;4.472;2023-06-10T08:00:24;24.26;51.70
66670;DHT22;53568;52.164;4.472;2023-06-10T08:02:49;24.18;52.32
66670;DHT22;53568;52.164;4.472;2023-06-10T08:05:16;24.21;52.53
66670;DHT22;53568;52.164;4.472;2023-06-10T08:07:42;24.31;51.90
66670;DHT22;53568;52.164;4.472;2023-06-10T08:10:08;24.35;51.78
66670;DHT22;53568;52.164;4.472;2023-06-10T08:12:34;24.36;51.78
66670;DHT22;53568;52.164;4.472;2023-06-10T08:15:00;24.39;51.36
66670;DHT22;53568;52.164;4.472;2023-06-10T08:17:26;24.41;51.55
66670;DHT22;53568;52.164;4.472;2023-06-10T08:19:51;24.42;51.18
66670;DHT22;53568;52.164;4.472;2023-06-10T08:22:17;24.49;51.20
66670;DHT22;53568;52.164;4.472;2023-06-10T08:24:43;24.52;51.19
66670;DHT22;53568;52.164;4.472;2023-06-10T08:27:09;24.61;51.20
66670;DHT22;53568;52.164;4.472;2023-06-10T08:29:35;24.69;50.79
66670;DHT22;53568;52.164;4.472;2023-06-10T08:32:01;24.77;50.86
66670;DHT22;53568;52.164;4.472;2023-06-10T08:34:29;24.95;50.66
66670;DHT22;53568;52.164;4.472;2023-06-10T08:36:55;25.09;50.00
66670;DHT22;53568;52.164;4.472;2023-06-10T08:39:23;25.23;50.00
66670;DHT22;53568;52.164;4.472;2023-06-10T08:42:28;25.27;49.68
66670;DHT22;53568;52.164;4.472;2023-06-10T08:44:55;25.41;49.26
66670;DHT22;53568;52.164;4.472;2023-06-10T08:47:25;25.41;49.46
66670;DHT22;53568;52.164;4.472;2023-06-10T08:49:51;25.46;49.03
66670;DHT22;53568;52.164;4.472;2023-06-10T08:52:21;25.54;49.08
66670;DHT22;53568;52.164;4.472;2023-06-10T08:54:52;25.66;48.70
66670;DHT22;53568;52.164;4.472;2023-06-10T08:57:20;25.74;47.95
66670;DHT22;53568;52.164;4.472;2023-06-10T08:59:48;25.73;48.40
66670;DHT22;53568;52.164;4.472;2023-06-10T09:02:14;25.61;48.94
66670;DHT22;53568;52.164;4.472;2023-06-10T09:04:42;25.66;48.53
66670;DHT22;53568;52.164;4.472;2023-06-10T09:07:09;25.69;48.42
66670;DHT22;53568;52.164;4.472;2023-06-10T09:09:36;25.78;48.66
66670;DHT22;53568;52.164;4.472;2023-06-10T09:12:03;25.85;48.29
66670;DHT22;53568;52.164;4.472;2023-06-10T09:14:29;25.93;48.36
66670;DHT22;53568;52.164;4.472;2023-06-10T09:16:55;25.97;48.17
66670;DHT22;53568;52.164;4.472;2023-06-10T09:19:25;26.00;48.31
66670;DHT22;53568;52.164;4.472;2023-06-10T09:21:50;26.13;48.44
66670;DHT22;53568;52.164;4.472;2023-06-10T09:24:17;26.29;47.56
66670;DHT22;53568;52.164;4.472;2023-06-10T09:26:43;26.27;47.77
66670;DHT22;53568;52.164;4.472;2023-06-10T09:29:11;26.29;47.68
66670;DHT22;53568;52.164;4.472;2023-06-10T09:31:39;26.31;47.83
66670;DHT22;53568;52.164;4.472;2023-06-10T09:34:10;26.42;48.59
66670;DHT22;53568;52.164;4.472;2023-06-10T09:36:38;26.56;47.61
66670;DHT22;53568;52.164;4.472;2023-06-10T09:39:04;26.62;47.72
66670;DHT22;53568;52.164;4.472;2023-06-10T09:41:34;26.69;47.19
66670;DHT22;53568;52.164;4.472;2023-06-10T09:44:01;26.69;47.50
66670;DHT22;53568;52.164;4.472;2023-06-10T09:46:34;26.62;47.00
66670;DHT22;53568;52.164;4.472;2023-06-10T09:48:59;26.48;47.50
66670;DHT22;53568;52.164;4.472;2023-06-10T09:51:25;26.44;47.83
66670;DHT22;53568;52.164;4.472;2023-06-10T09:53:52;26.51;47.69
66670;DHT22;53568;52.164;4.472;2023-06-10T09:56:18;26.37;47.76
66670;DHT22;53568;52.164;4.472;2023-06-10T09:58:45;26.63;47.79
66670;DHT22;53568;52.164;4.472;2023-06-10T10:01:14;26.83;47.16
66670;DHT22;53568;52.164;4.472;2023-06-10T10:03:49;26.93;46.54
66670;DHT22;53568;52.164;4.472;2023-06-10T10:06:17;27.02;46.70
66670;DHT22;53568;52.164;4.472;2023-06-10T10:08:43;27.16;46.44
66670;DHT22;53568;52.164;4.472;2023-06-10T10:11:10;27.25;46.23
66670;DHT22;53568;52.164;4.472;2023-06-10T10:13:38;27.32;45.95
66670;DHT22;53568;52.164;4.472;2023-06-10T10:16:11;27.47;45.10
66670;DHT22;53568;52.164;4.472;2023-06-10T10:18:43;27.50;44.74
66670;DHT22;53568;52.164;4.472;2023-06-10T10:21:13;27.54;44.68
66670;DHT22;53568;52.164;4.472;2023-06-10T10:23:48;27.57;44.53
66670;DHT22;53568;52.164;4.472;2023-06-10T10:26:20;27.51;44.83
66670;DHT22;53568;52.164;4.472;2023-06-10T10:29:14;27.57;44.58
66670;DHT22;53568;52.164;4.472;2023-06-10T10:31:43;27.73;44.63
66670;DHT22;53568;52.164;4.472;2023-06-10T10:34:29;27.74;43.90
66670;DHT22;53568;52.164;4.472;2023-06-10T10:36:57;27.64;43.68
66670;DHT22;53568;52.164;4.472;2023-06-10T10:39:23;27.67;43.65
66670;DHT22;53568;52.164;4.472;2023-06-10T10:41:50;27.74;43.59
66670;DHT22;53568;52.164;4.472;2023-06-10T10:44:17;27.81;43.08
66670;DHT22;53568;52.164;4.472;2023-06-10T10:46:48;27.83;42.96
66670;DHT22;53568;52.164;4.472;2023-06-10T10:49:15;27.83;42.89
66670;DHT22;53568;52.164;4.472;2023-06-10T10:52:00;27.94;42.29
66670;DHT22;53568;52.164;4.472;2023-06-10T10:54:35;28.03;42.22
66670;DHT22;53568;52.164;4.472;2023-06-10T11:02:42;28.31;41.91
66670;DHT22;53568;52.164;4.472;2023-06-10T11:05:15;28.33;42.49
66670;DHT22;53568;52.164;4.472;2023-06-10T11:07:58;28.40;42.03
66670;DHT22;53568;52.164;4.472;2023-06-10T11:10:34;28.51;41.61
66670;DHT22;53568;52.164;4.472;2023-06-10T11:13:13;28.54;41.31
66670;DHT22;53568;52.164;4.472;2023-06-10T11:15:50;28.55;40.91
66670;DHT22;53568;52.164;4.472;2023-06-10T11:28:40;28.55;41.19
66670;DHT22;53568;52.164;4.472;2023-06-10T11:31:06;28.65;40.62
66670;DHT22;53568;52.164;4.472;2023-06-10T11:33:32;28.69;40.45
66670;DHT22;53568;52.164;4.472;2023-06-10T11:35:59;28.62;40.30
66670;DHT22;53568;52.164;4.472;2023-06-10T11:38:25;28.45;40.44
66670;DHT22;53568;52.164;4.472;2023-06-10T11:40:51;28.27;41.74
66670;DHT22;53568;52.164;4.472;2023-06-10T11:43:18;28.37;41.32
66670;DHT22;53568;52.164;4.472;2023-06-10T11:45:44;28.51;40.75
66670;DHT22;53568;52.164;4.472;2023-06-10T11:48:10;28.37;40.17
66670;DHT22;53568;52.164;4.472;2023-06-10T11:50:36;28.62;40.13
66670;DHT22;53568;52.164;4.472;2023-06-10T11:53:03;28.59;39.63
66670;DHT22;53568;52.164;4.472;2023-06-10T11:55:44;28.69;39.46
66670;DHT22;53568;52.164;4.472;2023-06-10T11:58:20;28.75;39.46
66670;DHT22;53568;52.164;4.472;2023-06-10T12:00:51;28.89;39.28
66670;DHT22;53568;52.164;4.472;2023-06-10T12:03:17;29.05;39.54
66670;DHT22;53568;52.164;4.472;2023-06-10T12:08:23;29.27;38.59
66670;DHT22;53568;52.164;4.472;2023-06-10T12:10:49;29.32;38.04
66670;DHT22;53568;52.164;4.472;2023-06-10T12:13:17;29.26;38.15
66670;DHT22;53568;52.164;4.472;2023-06-10T12:15:44;29.23;37.74
66670;DHT22;53568;52.164;4.472;2023-06-10T12:18:19;29.12;38.18
66670;DHT22;53568;52.164;4.472;2023-06-10T12:20:46;29.13;38.10
66670;DHT22;53568;52.164;4.472;2023-06-10T12:23:12;29.15;37.90
66670;DHT22;53568;52.164;4.472;2023-06-10T12:25:38;29.20;38.20
66670;DHT22;53568;52.164;4.472;2023-06-10T12:28:05;29.25;37.70
66670;DHT22;53568;52.164;4.472;2023-06-10T12:30:32;29.15;37.95
66670;DHT22;53568;52.164;4.472;2023-06-10T12:32:58;29.18;37.32
66670;DHT22;53568;52.164;4.472;2023-06-10T12:35:26;29.25;37.90
66670;DHT22;53568;52.164;4.472;2023-06-10T12:37:56;29.30;37.41
66670;DHT22;53568;52.164;4.472;2023-06-10T12:40:33;29.15;37.25
66670;DHT22;53568;52.164;4.472;2023-06-10T12:43:00;29.22;37.57
66670;DHT22;53568;52.164;4.472;2023-06-10T12:45:31;29.39;37.56
66670;DHT22;53568;52.164;4.472;2023-06-10T12:48:10;29.42;37.62
66670;DHT22;53568;52.164;4.472;2023-06-10T12:50:40;29.59;36.55
66670;DHT22;53568;52.164;4.472;2023-06-10T12:53:06;29.74;36.64
66670;DHT22;53568;52.164;4.472;2023-06-10T12:55:32;29.74;36.03
66670;DHT22;53568;52.164;4.472;2023-06-10T12:57:59;29.76;36.43
66670;DHT22;53568;52.164;4.472;2023-06-10T13:00:26;29.78;36.60
66670;DHT22;53568;52.164;4.472;2023-06-10T13:02:53;29.69;36.01
66670;DHT22;53568;52.164;4.472;2023-06-10T13:05:19;29.72;36.51
66670;DHT22;53568;52.164;4.472;2023-06-10T13:07:46;29.81;36.33
66670;DHT22;53568;52.164;4.472;2023-06-10T13:10:12;29.84;36.91
66670;DHT22;53568;52.164;4.472;2023-06-10T13:12:39;29.93;36.21
66670;DHT22;53568;52.164;4.472;2023-06-10T13:15:05;30.01;35.17
66670;DHT22;53568;52.164;4.472;2023-06-10T13:17:32;30.04;35.33
66670;DHT22;53568;52.164;4.472;2023-06-10T13:20:00;30.07;34.57
66670;DHT22;53568;52.164;4.472;2023-06-10T13:22:26;30.18;34.80
66670;DHT22;53568;52.164;4.472;2023-06-10T13:24:52;30.14;34.66
66670;DHT22;53568;52.164;4.472;2023-06-10T13:27:18;30.11;35.44
66670;DHT22;53568;52.164;4.472;2023-06-10T13:29:43;30.11;35.78
66670;DHT22;53568;52.164;4.472;2023-06-10T13:32:09;30.06;35.30
66670;DHT22;53568;52.164;4.472;2023-06-10T13:34:35;30.10;34.92
66670;DHT22;53568;52.164;4.472;2023-06-10T13:37:01;29.96;35.45
66670;DHT22;53568;52.164;4.472;2023-06-10T13:39:29;29.94;35.24
66670;DHT22;53568;52.164;4.472;2023-06-10T13:41:54;29.88;35.68
66670;DHT22;53568;52.164;4.472;2023-06-10T13:44:20;29.86;35.19
66670;DHT22;53568;52.164;4.472;2023-06-10T13:46:49;29.78;35.39
66670;DHT22;53568;52.164;4.472;2023-06-10T13:49:14;29.87;35.88
66670;DHT22;53568;52.164;4.472;2023-06-10T13:51:40;29.73;35.33
66670;DHT22;53568;52.164;4.472;2023-06-10T13:54:05;29.67;34.95
66670;DHT22;53568;52.164;4.472;2023-06-10T13:56:31;29.90;34.91
66670;DHT22;53568;52.164;4.472;2023-06-10T13:58:58;30.04;34.68
66670;DHT22;53568;52.164;4.472;2023-06-10T14:01:26;30.14;34.48
66670;DHT22;53568;52.164;4.472;2023-06-10T14:03:52;30.16;34.22
66670;DHT22;53568;52.164;4.472;2023-06-10T14:06:17;29.81;34.87
66670;DHT22;53568;52.164;4.472;2023-06-10T14:08:47;29.59;34.55
66670;DHT22;53568;52.164;4.472;2023-06-10T14:11:12;29.62;34.89
66670;DHT22;53568;52.164;4.472;2023-06-10T14:13:38;29.73;34.96
66670;DHT22;53568;52.164;4.472;2023-06-10T14:16:04;29.96;34.34
66670;DHT22;53568;52.164;4.472;2023-06-10T14:18:30;30.01;33.84
66670;DHT22;53568;52.164;4.472;2023-06-10T14:20:57;29.90;34.24
66670;DHT22;53568;52.164;4.472;2023-06-10T14:23:22;29.96;33.92
66670;DHT22;53568;52.164;4.472;2023-06-10T14:25:49;29.98;34.26
66670;DHT22;53568;52.164;4.472;2023-06-10T14:28:15;30.07;34.49
66670;DHT22;53568;52.164;4.472;2023-06-10T14:30:41;29.98;34.63
66670;DHT22;53568;52.164;4.472;2023-06-10T14:33:06;29.59;35.60
66670;DHT22;53568;52.164;4.472;2023-06-10T14:35:32;29.83;36.15
66670;DHT22;53568;52.164;4.472;2023-06-10T14:37:57;30.03;33.84
66670;DHT22;53568;52.164;4.472;2023-06-10T14:40:23;29.88;34.41
66670;DHT22;53568;52.164;4.472;2023-06-10T14:42:53;29.87;35.10
66670;DHT22;53568;52.164;4.472;2023-06-10T14:45:18;29.88;34.42
66670;DHT22;53568;52.164;4.472;2023-06-10T14:47:44;30.20;34.97
66670;DHT22;53568;52.164;4.472;2023-06-10T14:50:10;29.88;34.67
66670;DHT22;53568;52.164;4.472;2023-06-10T14:52:36;30.07;34.45
66670;DHT22;53568;52.164;4.472;2023-06-10T14:55:01;30.07;35.03
66670;DHT22;53568;52.164;4.472;2023-06-10T14:57:27;29.73;36.03
66670;DHT22;53568;52.164;4.472;2023-06-10T14:59:53;29.70;35.31
66670;DHT22;53568;52.164;4.472;2023-06-10T15:02:18;29.70;35.45
66670;DHT22;53568;52.164;4.472;2023-06-10T15:04:44;29.81;35.68
66670;DHT22;53568;52.164;4.472;2023-06-10T15:07:09;29.86;34.90
66670;DHT22;53568;52.164;4.472;2023-06-10T15:09:37;29.52;35.21
66670;DHT22;53568;52.164;4.472;2023-06-10T15:12:03;29.43;35.36
66670;DHT22;53568;52.164;4.472;2023-06-10T15:14:31;29.16;35.51
66670;DHT22;53568;52.164;4.472;2023-06-10T15:16:57;29.32;35.91
66670;DHT22;53568;52.164;4.472;2023-06-10T15:19:25;29.52;35.18
66670;DHT22;53568;52.164;4.472;2023-06-10T15:21:51;29.49;35.09
66670;DHT22;53568;52.164;4.472;2023-06-10T15:24:17;29.43;35.80
66670;DHT22;53568;52.164;4.472;2023-06-10T15:26:43;29.56;35.50
66670;DHT22;53568;52.164;4.472;2023-06-10T15:29:08;29.42;35.31
66670;DHT22;53568;52.164;4.472;2023-06-10T15:31:34;29.49;35.09
66670;DHT22;53568;52.164;4.472;2023-06-10T15:34:00;29.50;35.21
66670;DHT22;53568;52.164;4.472;2023-06-10T15:36:32;29.53;35.50
66670;DHT22;53568;52.164;4.472;2023-06-10T15:39:03;29.40;34.91
66670;DHT22;53568;52.164;4.472;2023-06-10T15:41:29;29.54;34.90
66670;DHT22;53568;52.164;4.472;2023-06-10T15:43:55;29.57;34.88
66670;DHT22;53568;52.164;4.472;2023-06-10T15:46:21;29.54;34.58
66670;DHT22;53568;52.164;4.472;2023-06-10T15:48:46;29.26;35.36
66670;DHT22;53568;52.164;4.472;2023-06-10T15:51:12;29.42;35.07
66670;DHT22;53568;52.164;4.472;2023-06-10T15:53:37;29.45;34.46
66670;DHT22;53568;52.164;4.472;2023-06-10T15:56:03;29.32;34.44